Terminal Aerodrome Forecast
Issued by NWS Wakefield, VA

Home | Current Version | Previous Version | Text Only | Print | Product List | Glossary On
Versions: 1 2 3 4 5 6 7 8 9 10 11 12 13 14
000
FTUS41 KAKQ 061734
TAFRIC
TAF
KRIC 061734Z 0618/0718 24005KT P6SM SCT080 BKN130
     FM070000 16005KT P6SM SCT050
     FM070400 14003KT P6SM BKN050
     FM071500 07004KT P6SM SCT040=

USA.gov is the U.S. government's official web portal to all federal, state and local government web resources and services.